Time;durP1;ratioP1;P1;durP2;ratioP2;P2;SDS_P1;SDS_P2;PMS_P1;PMS_P2;Temp;Humidity;BMP_temperature;BMP_pressure;BME280_temperature;BME280_humidity;BME280_pressure;Samples;Min_cycle;Max_cycle;Signal;HPM_P1;HPM_P2
2022/04/30 00:00:20;;;;;;;0.10;0.10;;;;;;;21.16;39.88;102321.75;5140778;27;20058;-30
2022/04/30 00:02:45;;;;;;;0.10;0.10;;;;;;;21.17;39.62;102322.59;5141097;27;21292;-29
2022/04/30 00:05:11;;;;;;;0.10;0.10;;;;;;;21.17;39.85;102320.66;5140382;27;20388;-31
2022/04/30 00:07:37;;;;;;;0.10;0.10;;;;;;;21.17;39.87;102314.28;5139544;27;20043;-30
2022/04/30 00:10:03;;;;;;;0.10;0.10;;;;;;;21.16;39.73;102313.44;5139991;27;21026;-31
2022/04/30 00:12:31;;;;;;;0.10;0.10;;;;;;;21.15;39.68;102320.06;5139335;27;20137;-33
2022/04/30 00:14:57;;;;;;;0.10;0.10;;;;;;;21.14;39.75;102312.84;5128239;27;20550;-31
2022/04/30 00:17:22;;;;;;;0.10;0.10;;;;;;;21.16;39.91;102315.38;5142071;27;20063;-30
2022/04/30 00:19:48;;;;;;;0.10;0.10;;;;;;;21.14;39.78;102310.06;5138707;27;20468;-32
2022/04/30 00:22:14;;;;;;;0.10;0.10;;;;;;;21.15;39.78;102317.28;5145367;27;20051;-30
2022/04/30 00:24:39;;;;;;;0.10;0.10;;;;;;;21.14;39.91;102310.06;5138840;27;20053;-31
2022/04/30 00:27:06;;;;;;;0.10;0.10;;;;;;;21.15;39.74;102319.22;5125614;27;20039;-31
2022/04/30 00:29:32;;;;;;;0.10;0.10;;;;;;;21.13;39.79;102313.94;5139169;27;20046;-32
2022/04/30 00:32:01;;;;;;;0.10;0.10;;;;;;;21.15;39.79;102311.75;5141258;27;20115;-30
2022/04/30 00:34:26;;;;;;;0.10;0.10;;;;;;;21.14;39.80;102320.31;5123241;27;20057;-30
2022/04/30 00:36:52;;;;;;;0.10;0.10;;;;;;;21.14;39.78;102304.53;5139689;27;20389;-31
2022/04/30 00:39:18;;;;;;;0.10;0.10;;;;;;;21.13;39.74;102307.56;5138498;27;20111;-30
2022/04/30 00:41:45;;;;;;;0.10;0.10;;;;;;;21.13;39.98;102304.81;5139442;27;20391;-30
2022/04/30 00:44:11;;;;;;;0.20;0.20;;;;;;;21.14;39.84;102312.00;5138753;27;20038;-31
2022/04/30 00:46:36;;;;;;;0.10;0.10;;;;;;;21.13;39.82;102311.19;5141094;27;20051;-30
2022/04/30 00:49:03;;;;;;;0.20;0.20;;;;;;;21.13;39.75;102310.34;5138217;27;20049;-30
2022/04/30 00:51:29;;;;;;;0.10;0.10;;;;;;;21.13;39.79;102307.56;5139884;27;20470;-32
2022/04/30 00:53:56;;;;;;;0.10;0.10;;;;;;;21.12;39.79;102309.53;5123022;27;20546;-30
2022/04/30 00:56:25;;;;;;;0.10;0.10;;;;;;;21.13;39.75;102308.41;5138112;27;20142;-29
2022/04/30 00:58:54;;;;;;;0.10;0.10;;;;;;;21.13;39.93;102305.63;5123213;27;20453;-31
2022/04/30 01:01:19;;;;;;;;;;;;;;;21.12;40.00;102306.75;5143847;27;20070;-29
2022/04/30 01:03:45;;;;;;;0.10;0.10;;;;;;;21.10;39.85;102302.56;5139528;27;20051;-30
2022/04/30 01:06:12;;;;;;;0.10;0.10;;;;;;;21.12;39.99;102300.38;5143272;27;20035;-31
2022/04/30 01:08:38;;;;;;;0.10;0.10;;;;;;;21.12;39.81;102305.91;5138183;27;20077;-30
2022/04/30 01:11:05;;;;;;;0.10;0.10;;;;;;;21.12;39.96;102308.69;5124599;27;20138;-31
2022/04/30 01:13:34;;;;;;;0.10;0.10;;;;;;;21.11;39.78;102305.03;5125276;27;20157;-29
2022/04/30 01:16:02;;;;;;;0.13;0.13;;;;;;;21.12;39.77;102306.75;5125779;27;20074;-30
2022/04/30 01:18:27;;;;;;;;;;;;;;;21.12;39.93;102303.97;5139928;27;20050;-30
2022/04/30 01:20:56;;;;;;;0.10;0.10;;;;;;;21.10;39.78;102306.16;5137605;27;19976;-31
2022/04/30 01:23:23;;;;;;;0.10;0.10;;;;;;;21.09;39.80;102301.72;5137714;27;20251;-32
2022/04/30 01:25:49;;;;;;;0.10;0.10;;;;;;;21.11;39.77;102293.13;5138478;27;20112;-30
2022/04/30 01:28:16;;;;;;;0.10;0.10;;;;;;;21.10;39.94;102294.25;5138208;27;20138;-31
2022/04/30 01:30:42;;;;;;;0.10;0.10;;;;;;;21.10;39.98;102288.69;5136086;27;20084;-30
2022/04/30 01:38:40;;;;;;;0.10;0.10;;;;;;;21.09;39.93;102287.88;5125562;27;20138;-30
2022/04/30 01:41:06;;;;;;;0.10;0.10;;;;;;;21.09;39.87;102287.03;5141347;27;20524;-35
2022/04/30 01:43:33;;;;;;;0.10;0.10;;;;;;;21.10;39.83;102285.94;5121953;27;20034;-33
2022/04/30 01:46:00;;;;;;;0.20;0.20;;;;;;;21.09;39.84;102270.41;5137150;27;20078;-30
2022/04/30 01:48:25;;;;;;;0.10;0.10;;;;;;;21.09;39.93;102275.97;5138692;27;20164;-30
2022/04/30 01:50:52;;;;;;;0.10;0.10;;;;;;;21.09;39.92;102264.88;5136842;27;20058;-30
2022/04/30 01:53:18;;;;;;;0.10;0.10;;;;;;;21.09;39.95;102278.72;5120078;27;20073;-30
2022/04/30 01:55:44;;;;;;;0.10;0.10;;;;;;;21.08;40.02;102277.91;5138004;27;20039;-31
2022/04/30 01:58:10;;;;;;;0.10;0.10;;;;;;;21.08;40.04;102263.22;5140238;27;20424;-33
2022/04/30 02:00:35;;;;;;;0.10;0.10;;;;;;;21.08;40.02;102268.75;5136953;27;20046;-31
2022/04/30 02:03:09;;;;;;;0.17;0.17;;;;;;;21.08;39.89;102263.22;5138761;27;20057;-30
2022/04/30 02:05:37;;;;;;;0.10;0.10;;;;;;;21.08;39.94;102266.81;5105671;27;20043;-31
2022/04/30 02:08:07;;;;;;;0.10;0.10;;;;;;;21.08;39.87;102257.66;5135889;27;20126;-31
2022/04/30 02:10:38;;;;;;;0.10;0.10;;;;;;;21.08;40.09;102265.97;5103897;27;20126;-31
2022/04/30 02:13:06;;;;;;;0.10;0.10;;;;;;;21.07;40.00;102259.59;5120606;27;20131;-29
2022/04/30 02:15:33;;;;;;;0.10;0.10;;;;;;;21.08;40.01;102257.66;5107288;27;20078;-30
2022/04/30 02:18:01;;;;;;;0.10;0.10;;;;;;;21.07;40.01;102251.31;5137613;27;20047;-31
2022/04/30 02:20:33;;;;;;;0.10;0.10;;;;;;;21.07;39.92;102261.50;5138484;27;20074;-29
2022/04/30 02:23:01;;;;;;;0.10;0.10;;;;;;;21.07;39.97;102261.50;5140801;27;20512;-30
2022/04/30 02:25:28;;;;;;;0.10;0.10;;;;;;;21.07;39.85;102258.75;5121674;27;20039;-31
2022/04/30 02:27:56;;;;;;;0.20;0.20;;;;;;;21.07;39.98;102258.75;5137003;27;20422;-30
2022/04/30 02:30:23;;;;;;;0.10;0.10;;;;;;;21.08;40.16;102257.66;5137313;27;20484;-31
2022/04/30 02:32:52;;;;;;;0.10;0.10;;;;;;;21.07;40.06;102250.44;5140184;27;20097;-30
2022/04/30 02:35:19;;;;;;;0.10;0.10;;;;;;;21.05;39.82;102248.78;5139017;27;20049;-30
2022/04/30 02:37:48;;;;;;;0.10;0.10;;;;;;;21.06;39.89;102249.59;5122900;27;20537;-31
2022/04/30 02:40:14;;;;;;;0.17;0.17;;;;;;;21.05;39.97;102245.16;5136179;27;20071;-30
2022/04/30 02:42:41;;;;;;;0.10;0.10;;;;;;;21.07;39.88;102250.44;5136458;27;20486;-30
2022/04/30 02:45:09;;;;;;;0.17;0.17;;;;;;;21.06;39.93;102257.91;5139865;27;20074;-30
2022/04/30 02:47:37;;;;;;;0.20;0.20;;;;;;;21.05;40.08;102246.00;5140757;27;20149;-30
2022/04/30 02:50:03;;;;;;;0.10;0.10;;;;;;;21.04;40.13;102244.34;5120646;27;20135;-31
2022/04/30 02:52:28;;;;;;;0.10;0.10;;;;;;;21.04;40.10;102247.09;5136118;27;20047;-29
2022/04/30 02:54:54;;;;;;;0.10;0.10;;;;;;;21.04;39.94;102244.34;5141539;27;20090;-28
2022/04/30 02:57:19;;;;;;;0.10;0.10;;;;;;;21.04;40.03;102243.50;5140790;27;20047;-30
2022/04/30 03:00:00;;;;;;;0.10;0.10;;;;;;;21.04;40.19;102238.78;5138394;27;20046;-31
2022/04/30 03:02:26;;;;;;;0.10;0.10;;;;;;;21.05;40.04;102242.41;5137855;27;20074;-30
2022/04/30 03:04:52;;;;;;;0.10;0.10;;;;;;;21.04;40.19;102241.56;5140326;27;20046;-30
2022/04/30 03:07:19;;;;;;;0.10;0.10;;;;;;;21.05;39.77;102245.16;5136393;27;20051;-30
2022/04/30 03:09:47;;;;;;;0.13;0.13;;;;;;;21.05;39.89;102239.63;5136720;27;20063;-30
2022/04/30 03:12:13;;;;;;;0.10;0.10;;;;;;;21.05;40.03;102245.16;5106852;27;20133;-30
2022/04/30 03:14:39;;;;;;;0.10;0.10;;;;;;;21.04;39.97;102241.56;5139375;27;20468;-30
2022/04/30 03:22:37;;;;;;;0.10;0.10;;;;;;;21.03;40.16;102239.06;5110107;27;20481;-32
2022/04/30 03:25:03;;;;;;;0.10;0.10;;;;;;;21.04;39.86;102243.50;5136391;27;20035;-30
2022/04/30 03:27:28;;;;;;;0.10;0.10;;;;;;;21.02;40.08;102240.97;5137201;27;20065;-30
2022/04/30 03:29:54;;;;;;;0.15;0.15;;;;;;;21.02;39.93;102243.75;5122258;27;20712;-30
2022/04/30 03:32:20;;;;;;;0.20;0.20;;;;;;;21.02;40.13;102240.97;5137710;27;20043;-32
2022/04/30 03:34:47;;;;;;;0.20;0.20;;;;;;;21.03;39.89;102242.66;5144264;27;20074;-31
2022/04/30 03:37:13;;;;;;;0.10;0.10;;;;;;;21.03;39.95;102242.66;5141832;27;20050;-31
2022/04/30 03:39:39;;;;;;;0.10;0.10;;;;;;;21.03;39.99;102250.16;5138818;27;20134;-31
2022/04/30 03:42:05;;;;;;;0.10;0.10;;;;;;;21.03;39.94;102250.16;5139131;27;20451;-30
2022/04/30 03:44:32;;;;;;;0.10;0.10;;;;;;;21.02;39.93;102243.75;5144575;27;20133;-32
2022/04/30 03:46:57;;;;;;;0.10;0.10;;;;;;;21.03;39.92;102244.59;5139186;27;20785;-30
2022/04/30 03:49:23;;;;;;;0.20;0.20;;;;;;;21.03;39.89;102247.38;5144232;27;20050;-29
2022/04/30 03:51:49;;;;;;;0.10;0.10;;;;;;;21.02;39.96;102243.75;5139486;27;20050;-31
2022/04/30 03:54:15;;;;;;;0.10;0.10;;;;;;;21.02;39.79;102249.28;5142142;27;20438;-31
2022/04/30 03:56:40;;;;;;;0.10;0.10;;;;;;;21.02;40.28;102251.22;5144834;27;20485;-30
2022/04/30 03:59:06;;;;;;;0.10;0.10;;;;;;;21.02;39.98;102243.75;5141548;27;20401;-32
2022/04/30 04:01:34;;;;;;;0.10;0.10;;;;;;;21.02;39.96;102248.44;5140580;27;20065;-30
2022/04/30 04:04:00;;;;;;;0.10;0.10;;;;;;;21.01;40.21;102241.25;5145986;27;20457;-30
2022/04/30 04:06:26;;;;;;;0.10;0.10;;;;;;;21.01;39.96;102244.84;5139785;27;20066;-30
2022/04/30 04:08:52;;;;;;;0.10;0.10;;;;;;;21.02;40.00;102251.22;5141392;27;20067;-31
2022/04/30 04:11:18;;;;;;;0.10;0.10;;;;;;;21.00;39.98;102251.50;5142403;27;20057;-31
2022/04/30 04:19:15;;;;;;;0.10;0.10;;;;;;;21.01;40.09;102255.09;5127198;27;20560;-31
2022/04/30 04:21:41;;;;;;;0.10;0.10;;;;;;;21.00;39.98;102257.03;5139309;27;20047;-30
2022/04/30 04:26:53;;;;;;;0.10;0.10;;;;;;;20.99;40.10;102263.69;5126984;27;20377;-30
2022/04/30 04:29:18;;;;;;;0.10;0.10;;;;;;;20.99;40.11;102271.16;5140277;27;20466;-32
2022/04/30 04:31:44;;;;;;;0.10;0.10;;;;;;;21.01;40.14;102271.72;5141204;27;20047;-30
2022/04/30 04:34:10;;;;;;;0.13;0.13;;;;;;;21.00;40.08;102270.88;5140110;27;20455;-30
2022/04/30 04:36:36;;;;;;;0.10;0.10;;;;;;;21.00;40.10;102262.56;5138057;27;20132;-30
2022/04/30 04:39:09;;;;;;;0.20;0.20;;;;;;;21.00;40.46;102267.28;5141040;27;20047;-29
2022/04/30 04:41:35;;;;;;;0.10;0.10;;;;;;;20.99;39.95;102271.16;5137822;27;20078;-30
2022/04/30 04:44:02;;;;;;;0.10;0.10;;;;;;;20.99;40.22;102274.75;5140989;27;20532;-30
2022/04/30 04:46:28;;;;;;;0.10;0.10;;;;;;;20.99;40.07;102273.94;5137865;27;20516;-30
2022/04/30 04:48:54;;;;;;;0.20;0.20;;;;;;;21.00;40.02;102275.59;5136510;27;20434;-30
2022/04/30 04:51:21;;;;;;;0.20;0.20;;;;;;;21.00;40.15;102283.91;5139594;27;20035;-31
2022/04/30 04:53:47;;;;;;;0.10;0.10;;;;;;;20.99;39.99;102285.00;5136758;27;20072;-30
2022/04/30 04:56:13;;;;;;;0.10;0.10;;;;;;;20.99;40.01;102276.69;5140187;27;20066;-30
2022/04/30 04:58:40;;;;;;;0.10;0.10;;;;;;;20.98;40.06;102278.63;5139833;27;20050;-30
2022/04/30 05:01:06;;;;;;;0.10;0.10;;;;;;;20.99;40.14;102287.78;5139886;27;20050;-30
2022/04/30 05:03:31;;;;;;;0.17;0.17;;;;;;;20.99;40.18;102291.38;5122796;27;20047;-29
2022/04/30 05:05:57;;;;;;;0.10;0.10;;;;;;;20.97;40.17;102274.16;5124718;27;20104;-30
2022/04/30 05:08:23;;;;;;;0.10;0.10;;;;;;;20.99;40.02;102285.00;5138226;27;20088;-30
2022/04/30 05:10:49;;;;;;;0.10;0.10;;;;;;;20.98;39.99;102289.72;5141008;27;20150;-31
2022/04/30 05:13:15;;;;;;;0.10;0.10;;;;;;;20.98;40.17;102281.41;5125062;27;20038;-29
2022/04/30 05:15:41;;;;;;;0.13;0.13;;;;;;;20.98;40.16;102291.63;5137727;27;20130;-29
2022/04/30 05:18:07;;;;;;;0.10;0.10;;;;;;;20.97;40.09;102295.47;5140259;27;20050;-30
2022/04/30 05:20:33;;;;;;;0.13;0.13;;;;;;;20.97;40.07;102301.03;5139047;27;20533;-30
2022/04/30 05:23:09;;;;;;;0.10;0.10;;;;;;;20.97;40.24;102299.09;5141699;27;20046;-30
2022/04/30 05:25:36;;;;;;;0.10;0.10;;;;;;;20.97;40.07;102296.31;5125646;27;20086;-30
2022/04/30 05:28:01;;;;;;;0.10;0.10;;;;;;;20.97;40.27;102299.09;5138219;27;20066;-31
2022/04/30 05:30:27;;;;;;;0.10;0.10;;;;;;;20.97;39.84;102301.03;5125886;27;20046;-31
2022/04/30 05:32:52;;;;;;;0.10;0.10;;;;;;;20.97;40.12;102310.16;5143269;27;20051;-30
2022/04/30 05:35:18;;;;;;;0.20;0.20;;;;;;;20.96;40.12;102305.72;5138655;27;20043;-31
2022/04/30 05:37:44;;;;;;;0.10;0.10;;;;;;;20.97;40.26;102310.16;5122884;27;20039;-30
2022/04/30 05:40:10;;;;;;;0.10;0.10;;;;;;;20.97;40.01;102307.41;5137893;27;20051;-32
2022/04/30 05:42:35;;;;;;;0.10;0.10;;;;;;;20.97;40.12;102317.63;5138741;27;20082;-31
2022/04/30 05:45:01;;;;;;;0.10;0.10;;;;;;;20.96;40.26;102318.75;5140086;27;20035;-30
2022/04/30 05:47:27;;;;;;;0.10;0.10;;;;;;;20.96;40.05;102318.75;5139650;27;20507;-30
2022/04/30 05:49:52;;;;;;;0.10;0.10;;;;;;;20.95;40.26;102320.69;5139939;27;20046;-30
2022/04/30 05:52:19;;;;;;;0.10;0.10;;;;;;;20.96;39.97;102318.75;5138174;27;20057;-30
2022/04/30 05:54:46;;;;;;;0.10;0.10;;;;;;;20.96;40.19;102319.56;5142490;27;20073;-30
2022/04/30 05:57:12;;;;;;;0.10;0.10;;;;;;;20.96;40.08;102314.03;5138149;27;20476;-27
2022/04/30 05:59:37;;;;;;;0.10;0.10;;;;;;;20.95;40.08;102317.91;5138522;27;20094;-28
2022/04/30 06:02:04;;;;;;;0.10;0.10;;;;;;;20.96;40.10;102321.50;5141239;27;20502;-28
2022/04/30 06:04:34;;;;;;;0.10;0.10;;;;;;;20.96;40.20;102321.50;5141144;27;20378;-29
2022/04/30 06:07:00;;;;;;;0.10;0.10;;;;;;;20.96;40.10;102322.34;5138544;27;20525;-32
2022/04/30 06:09:26;;;;;;;0.10;0.10;;;;;;;20.95;40.14;102317.91;5138010;27;20389;-30
2022/04/30 06:11:51;;;;;;;0.10;0.10;;;;;;;20.95;40.09;102320.69;5141818;27;20058;-32
2022/04/30 06:14:17;;;;;;;0.10;0.10;;;;;;;20.96;40.11;102316.81;5138132;27;20047;-31
2022/04/30 06:16:43;;;;;;;0.10;0.10;;;;;;;20.96;40.03;102325.13;5138726;27;20038;-29
2022/04/30 06:19:09;;;;;;;0.10;0.10;;;;;;;20.95;40.18;102326.22;5135220;27;20039;-32
2022/04/30 06:21:39;;;;;;;0.10;0.10;;;;;;;20.95;40.06;102317.09;5137190;27;20042;-31
2022/04/30 06:24:05;;;;;;;0.10;0.10;;;;;;;20.94;40.21;102316.25;5138305;27;20138;-30
2022/04/30 06:26:32;;;;;;;0.10;0.10;;;;;;;20.95;40.34;102326.22;5136908;27;20176;-30
2022/04/30 06:28:58;;;;;;;0.20;0.20;;;;;;;20.95;40.28;102322.63;5141799;27;20050;-30
2022/04/30 06:31:24;;;;;;;0.10;0.10;;;;;;;20.94;40.05;102330.09;5136925;27;20039;-29
2022/04/30 06:33:52;;;;;;;0.10;0.10;;;;;;;20.94;40.13;102332.00;5140651;27;20366;-29
2022/04/30 06:36:17;;;;;;;0.10;0.10;;;;;;;20.93;40.18;102324.78;5139281;27;20175;-29
2022/04/30 06:38:43;;;;;;;0.10;0.10;;;;;;;20.94;39.98;102332.00;5137655;27;20051;-30
2022/04/30 06:41:09;;;;;;;0.10;0.10;;;;;;;20.93;40.35;102335.88;5140558;27;20047;-31
2022/04/30 06:43:34;;;;;;;0.10;0.10;;;;;;;20.93;40.56;102333.09;5139611;27;20519;-33
2022/04/30 06:46:00;;;;;;;0.10;0.10;;;;;;;20.93;40.18;102330.34;5139984;27;20381;-31
2022/04/30 06:48:25;;;;;;;0.20;0.20;;;;;;;20.94;40.13;102332.00;5136304;27;20050;-30
2022/04/30 06:50:51;;;;;;;0.10;0.10;;;;;;;20.94;40.23;102326.47;5140754;27;20051;-30
2022/04/30 06:58:54;;;;;;;0.10;0.10;;;;;;;20.93;40.07;102320.09;5121681;27;20165;-29
2022/04/30 07:01:26;;;;;;;0.20;0.20;;;;;;;20.93;39.93;102320.09;5138690;27;20129;-31
2022/04/30 07:03:55;;;;;;;0.20;0.20;;;;;;;20.93;40.22;102314.56;5141626;27;20055;-31
2022/04/30 07:06:21;;;;;;;0.10;0.10;;;;;;;20.92;40.06;102320.34;5137506;27;20054;-30
2022/04/30 07:08:46;;;;;;;0.20;0.20;;;;;;;20.93;40.17;102320.09;5136879;27;20051;-30
2022/04/30 07:11:12;;;;;;;0.10;0.10;;;;;;;20.94;40.08;102320.91;5143426;27;20098;-29
2022/04/30 07:13:38;;;;;;;0.10;0.10;;;;;;;20.93;39.97;102328.41;5145000;27;20078;-29
2022/04/30 07:16:04;;;;;;;0.10;0.10;;;;;;;20.93;40.14;102331.16;5141016;27;20057;-30
2022/04/30 07:18:30;;;;;;;0.10;0.10;;;;;;;20.93;40.14;102327.56;5142976;27;20490;-29
2022/04/30 07:20:56;;;;;;;0.15;0.15;;;;;;;20.92;40.01;102321.19;5144861;27;20045;-30
2022/04/30 07:23:21;;;;;;;0.20;0.20;;;;;;;20.92;40.12;102325.91;5141724;27;20518;-33
2022/04/30 07:25:47;;;;;;;0.10;0.10;;;;;;;20.92;40.05;102337.81;5144941;27;20405;-30
2022/04/30 07:28:13;;;;;;;0.17;0.17;;;;;;;20.93;40.14;102333.09;5125985;27;20077;-30
2022/04/30 07:30:39;;;;;;;0.10;0.10;;;;;;;20.92;40.21;102335.03;5141769;27;20055;-29
2022/04/30 07:33:05;;;;;;;0.10;0.10;;;;;;;20.91;40.32;102336.13;5142145;27;20081;-31
2022/04/30 07:35:30;;;;;;;0.10;0.10;;;;;;;20.93;40.01;102333.09;5144166;27;20049;-30
2022/04/30 07:37:56;;;;;;;0.10;0.10;;;;;;;20.91;40.08;102330.59;5143016;27;20042;-31
2022/04/30 07:40:22;;;;;;;0.10;0.10;;;;;;;20.91;40.27;102322.28;5138286;27;20100;-28
2022/04/30 07:42:47;;;;;;;0.17;0.17;;;;;;;20.91;40.18;102325.06;5141418;27;20047;-28
2022/04/30 07:45:13;;;;;;;0.13;0.13;;;;;;;20.90;40.06;102334.47;5138689;27;20043;-28
2022/04/30 07:47:39;;;;;;;0.20;0.20;;;;;;;20.91;40.16;102319.53;5140504;27;20051;-29
2022/04/30 07:50:05;;;;;;;0.10;0.10;;;;;;;20.92;40.22;102328.66;5138892;27;20043;-28
2022/04/30 07:52:32;;;;;;;0.10;0.10;;;;;;;20.91;40.28;102327.84;5142196;27;20077;-28
2022/04/30 07:54:57;;;;;;;0.10;0.10;;;;;;;20.91;40.23;102322.28;5140114;27;20066;-32
2022/04/30 07:57:24;;;;;;;0.10;0.10;;;;;;;20.92;40.30;102323.13;5143446;27;20043;-34
2022/04/30 07:59:50;;;;;;;0.10;0.10;;;;;;;20.92;40.48;102323.13;5141598;27;20482;-31
2022/04/30 08:02:18;;;;;;;0.10;0.10;;;;;;;20.92;40.31;102320.34;5144809;27;20134;-30
2022/04/30 08:04:45;;;;;;;0.10;0.10;;;;;;;20.90;40.14;102315.09;5143802;27;20117;-31
2022/04/30 08:07:12;;;;;;;0.10;0.10;;;;;;;20.90;40.09;102317.84;5141153;27;20382;-31
2022/04/30 08:09:37;;;;;;;0.10;0.10;;;;;;;20.91;40.31;102324.22;5138526;27;20051;-32
2022/04/30 08:12:03;;;;;;;0.20;0.20;;;;;;;20.90;40.24;102320.63;5141142;27;20047;-33
2022/04/30 08:14:29;;;;;;;0.10;0.10;;;;;;;20.91;40.33;102318.69;5144204;27;20059;-32
2022/04/30 08:16:55;;;;;;;0.10;0.10;;;;;;;20.91;40.35;102325.06;5140777;27;20039;-31
2022/04/30 08:19:20;;;;;;;0.10;0.10;;;;;;;20.92;40.13;102323.13;5123616;27;20122;-31
2022/04/30 08:21:48;;;;;;;0.20;0.20;;;;;;;20.91;40.35;102316.75;5141034;27;20145;-33
2022/04/30 08:24:34;;;;;;;0.10;0.10;;;;;;;20.90;40.20;102312.31;5115303;27;20046;-31
2022/04/30 08:27:00;;;;;;;0.10;0.10;;;;;;;20.90;40.33;102305.94;5141288;27;20085;-30
2022/04/30 08:29:28;;;;;;;0.15;0.15;;;;;;;20.90;40.24;102305.94;5142566;27;20137;-30
2022/04/30 08:31:54;;;;;;;0.10;0.10;;;;;;;20.89;40.17;102307.84;5141800;27;20082;-30
2022/04/30 08:34:20;;;;;;;0.10;0.10;;;;;;;20.89;40.16;102310.63;5140731;27;20066;-30
2022/04/30 08:36:46;;;;;;;0.10;0.10;;;;;;;20.90;40.16;102311.50;5139464;27;20565;-33
2022/04/30 08:39:12;;;;;;;0.10;0.10;;;;;;;20.90;40.06;102317.03;5138969;27;20327;-31
2022/04/30 08:41:41;;;;;;;0.10;0.10;;;;;;;20.91;40.32;102313.16;5141023;27;20484;-34
2022/04/30 08:44:07;;;;;;;0.10;0.10;;;;;;;20.91;40.25;102310.38;5142273;27;20340;-29
2022/04/30 08:46:33;;;;;;;0.20;0.20;;;;;;;20.89;40.21;102310.63;5140954;27;20045;-31
2022/04/30 08:48:59;;;;;;;0.10;0.10;;;;;;;20.90;40.42;102314.25;5135607;27;20496;-33
2022/04/30 08:51:25;;;;;;;0.20;0.20;;;;;;;20.90;40.27;102309.56;5139626;27;20084;-30
2022/04/30 08:53:51;;;;;;;0.10;0.10;;;;;;;20.89;40.61;102310.63;5142328;27;20376;-30
2022/04/30 08:56:17;;;;;;;0.20;0.20;;;;;;;20.89;40.07;102302.31;5139623;27;20054;-33
2022/04/30 08:58:42;;;;;;;0.20;0.20;;;;;;;20.89;40.18;102310.63;5141165;27;20095;-32
2022/04/30 09:01:10;;;;;;;0.10;0.10;;;;;;;20.89;40.15;102309.78;5141782;27;20389;-33
2022/04/30 09:03:36;;;;;;;0.10;0.10;;;;;;;20.89;40.37;102312.56;5141444;27;20357;-30
2022/04/30 09:06:04;;;;;;;0.20;0.20;;;;;;;20.88;40.33;102303.41;5123988;27;20125;-32
2022/04/30 09:08:29;;;;;;;0.17;0.17;;;;;;;20.87;40.17;102304.53;5136934;27;20124;-30
2022/04/30 09:11:06;;;;;;;0.17;0.17;;;;;;;20.88;39.99;102297.88;5142802;27;20171;-33
2022/04/30 09:13:32;;;;;;;0.10;0.10;;;;;;;20.86;40.16;102294.56;5143398;27;20179;-32
2022/04/30 09:15:58;;;;;;;0.10;0.10;;;;;;;20.87;40.14;102293.44;5142009;27;20173;-30
2022/04/30 09:18:23;;;;;;;0.13;0.13;;;;;;;20.87;40.09;102295.38;5137401;27;20188;-30
2022/04/30 09:20:51;;;;;;;0.20;0.20;;;;;;;20.88;40.13;102297.88;5140334;27;20049;-32
2022/04/30 09:23:27;;;;;;;0.10;0.10;;;;;;;20.88;40.29;102295.13;5141583;27;20532;-31
2022/04/30 09:25:55;;;;;;;0.10;0.10;;;;;;;20.87;40.27;102279.59;5140246;27;20082;-30
2022/04/30 09:28:30;;;;;;;0.17;0.17;;;;;;;20.89;40.18;102282.09;5120869;27;20070;-30
2022/04/30 09:31:13;;;;;;;0.20;0.20;;;;;;;20.88;40.16;102281.25;5142289;27;20051;-30
2022/04/30 09:33:53;;;;;;;0.20;0.20;;;;;;;20.87;40.34;102282.38;5141545;27;20107;-31
2022/04/30 09:39:14;;;;;;;0.20;0.20;;;;;;;20.86;40.18;102277.94;5127125;27;20586;-30
2022/04/30 09:41:39;;;;;;;0.10;0.10;;;;;;;20.86;40.27;102283.47;5141089;27;20135;-30
2022/04/30 09:44:06;;;;;;;0.20;0.20;;;;;;;20.86;40.02;102274.34;5124597;27;20076;-31
2022/04/30 09:46:35;;;;;;;0.10;0.10;;;;;;;20.86;40.18;102277.94;5143326;27;20038;-31
2022/04/30 09:54:36;;;;;;;0.10;0.10;;;;;;;20.86;40.15;102264.09;5124678;27;20074;-30
2022/04/30 09:57:05;;;;;;;0.10;0.10;;;;;;;20.86;40.07;102260.50;5138548;27;20489;-29
2022/04/30 09:59:34;;;;;;;0.20;0.20;;;;;;;20.86;40.10;102261.31;5137163;27;20808;-30
2022/04/30 10:02:03;;;;;;;0.20;0.20;;;;;;;20.86;40.04;102266.84;5126418;27;20142;-31
2022/04/30 10:04:30;;;;;;;0.20;0.20;;;;;;;20.86;40.32;102266.84;5140104;27;20043;-30
2022/04/30 10:06:59;;;;;;;0.10;0.10;;;;;;;20.86;40.06;102260.50;5141081;27;20130;-29
2022/04/30 10:09:30;;;;;;;0.20;0.20;;;;;;;20.86;40.24;102260.50;5137227;27;20126;-31
2022/04/30 10:14:44;;;;;;;0.13;0.13;;;;;;;20.85;40.25;102256.84;5165830;27;20125;-24
2022/04/30 10:17:13;;;;;;;0.10;0.10;;;;;;;20.86;40.13;102252.19;5165422;27;20095;-24
2022/04/30 10:19:39;;;;;;;0.10;0.10;;;;;;;20.85;40.24;102251.31;5163869;27;20050;-24
2022/04/30 10:22:11;;;;;;;0.20;0.20;;;;;;;20.84;40.05;102238.56;5144186;27;20089;-24
2022/04/30 10:24:41;;;;;;;0.20;0.20;;;;;;;20.84;40.20;102246.88;5165067;27;20910;-25
2022/04/30 10:27:07;;;;;;;0.13;0.13;;;;;;;20.85;40.15;102242.19;5141861;27;20143;-25
2022/04/30 10:29:32;;;;;;;0.10;0.10;;;;;;;20.85;40.01;102247.72;5164697;27;20053;-25
2022/04/30 10:31:58;;;;;;;0.20;0.20;;;;;;;20.86;40.26;102254.94;5162800;27;20045;-24
2022/04/30 10:34:28;;;;;;;0.20;0.20;;;;;;;20.85;40.04;102247.72;5164469;27;20046;-25
2022/04/30 10:36:55;;;;;;;0.20;0.20;;;;;;;20.86;40.00;102252.19;5162576;27;20125;-25
2022/04/30 10:39:20;;;;;;;0.10;0.10;;;;;;;20.85;40.18;102253.25;5143432;27;20093;-25
2022/04/30 10:41:52;;;;;;;0.20;0.20;;;;;;;20.85;40.11;102248.56;5163325;27;20473;-24
2022/04/30 10:44:27;;;;;;;0.17;0.17;;;;;;;20.85;40.00;102243.00;5163360;27;20097;-25
2022/04/30 10:46:53;;;;;;;0.20;0.20;;;;;;;20.85;40.01;102236.63;5163462;27;20320;-25
2022/04/30 10:49:18;;;;;;;0.20;0.20;;;;;;;20.85;40.07;102223.63;5161864;27;20093;-25
2022/04/30 10:51:45;;;;;;;0.38;0.20;;;;;;;20.84;40.15;102227.50;5163510;27;20388;-25
2022/04/30 10:54:13;;;;;;;0.10;0.10;;;;;;;20.84;40.09;102227.50;5163339;27;20097;-25
2022/04/30 10:56:46;;;;;;;0.10;0.10;;;;;;;20.85;40.11;102225.56;5161909;27;20035;-25
2022/04/30 10:59:21;;;;;;;0.20;0.20;;;;;;;20.85;39.98;102220.03;5163374;27;20513;-24
2022/04/30 11:01:48;;;;;;;0.10;0.10;;;;;;;20.83;39.95;102217.53;5145478;27;20121;-25
2022/04/30 11:04:16;;;;;;;0.10;0.10;;;;;;;20.84;39.95;102218.38;5144671;27;20134;-26
2022/04/30 11:06:43;;;;;;;0.10;0.10;;;;;;;20.85;40.23;102215.31;5163279;27;20038;-25
2022/04/30 11:09:08;;;;;;;0.20;0.20;;;;;;;20.84;39.96;102210.88;5143239;27;20069;-25
2022/04/30 11:11:35;;;;;;;0.10;0.10;;;;;;;20.83;40.16;102208.38;5163044;27;20049;-25
2022/04/30 11:14:05;;;;;;;0.10;0.10;;;;;;;20.84;39.83;102221.97;5144003;27;20121;-25
2022/04/30 11:16:32;;;;;;;0.10;0.10;;;;;;;20.84;39.99;102210.88;5143241;27;20081;-25
2022/04/30 11:18:59;;;;;;;0.10;0.10;;;;;;;20.83;40.10;102212.00;5159517;27;20478;-25
2022/04/30 11:21:33;;;;;;;0.10;0.10;;;;;;;20.84;39.88;102207.28;5162646;27;20249;-25
2022/04/30 11:23:59;;;;;;;0.10;0.10;;;;;;;20.83;39.94;102203.69;5116775;27;20135;-24
2022/04/30 11:26:24;;;;;;;0.10;0.10;;;;;;;20.84;39.86;102190.69;5147571;27;20397;-25
2022/04/30 11:28:50;;;;;;;0.20;0.20;;;;;;;20.84;40.00;102196.22;5149062;27;20089;-25
2022/04/30 11:31:20;;;;;;;0.10;0.10;;;;;;;20.83;39.89;102195.38;5149216;27;20541;-25
2022/04/30 11:33:45;;;;;;;0.10;0.10;;;;;;;20.84;40.00;102188.75;5130021;27;20047;-25
2022/04/30 11:36:12;;;;;;;0.10;0.10;;;;;;;20.84;39.76;102185.13;5147789;27;20047;-24
2022/04/30 11:38:37;;;;;;;0.10;0.10;;;;;;;20.84;40.04;102185.13;5128763;27;20074;-25
2022/04/30 11:41:04;;;;;;;0.20;0.20;;;;;;;20.84;40.20;102183.19;5129359;28;20043;-25
2022/04/30 11:43:30;;;;;;;0.17;0.17;;;;;;;20.84;39.93;102176.81;5126446;28;20435;-25
2022/04/30 11:46:00;;;;;;;0.10;0.10;;;;;;;20.83;39.88;102175.16;5126129;28;20057;-25
2022/04/30 11:48:31;;;;;;;0.10;0.10;;;;;;;20.83;39.96;102170.47;5092521;28;20133;-25
2022/04/30 11:50:57;;;;;;;0.20;0.20;;;;;;;20.84;40.01;102176.81;5110480;28;20480;-25
2022/04/30 11:53:23;;;;;;;0.20;0.20;;;;;;;20.83;40.10;102173.22;5128429;28;20637;-25
2022/04/30 11:55:48;;;;;;;0.15;0.15;;;;;;;20.84;40.07;102174.06;5128509;28;20129;-24
2022/04/30 11:58:14;;;;;;;0.20;0.20;;;;;;;20.84;40.19;102169.34;5127418;28;20054;-24
2022/04/30 12:00:59;;;;;;;0.20;0.20;;;;;;;20.83;40.03;102175.16;5113275;28;20100;-27